Time;durP1;ratioP1;P1;durP2;ratioP2;P2;SDS_P1;SDS_P2;PMS_P1;PMS_P2;Temp;Humidity;BMP_temperature;BMP_pressure;BME280_temperature;BME280_humidity;BME280_pressure;Samples;Min_cycle;Max_cycle;Signal;HPM_P1;HPM_P2
2022/06/11 00:02:25;;;;;;;1.95;1.30;;;;;;;19.10;97.35;101762.31;6374667;27;20055;-78
2022/06/11 00:05:26;;;;;;;3.70;1.45;;;;;;;19.10;97.23;101762.31;6374710;27;20039;-78
2022/06/11 00:08:28;;;;;;;1.90;1.20;;;;;;;19.11;96.73;101759.50;6375583;27;20552;-78
2022/06/11 00:11:29;;;;;;;2.40;1.35;;;;;;;19.09;97.14;101769.44;6348892;28;20051;-78
2022/06/11 00:14:34;;;;;;;0.98;0.88;;;;;;;19.09;96.94;101757.94;6348633;28;20047;-79
2022/06/11 00:17:36;;;;;;;1.00;0.90;;;;;;;19.09;97.29;101750.78;6349044;28;20047;-78
2022/06/11 00:20:38;;;;;;;1.65;1.13;;;;;;;19.09;96.97;101758.78;6358063;27;20047;-78
2022/06/11 00:23:40;;;;;;;3.47;1.10;;;;;;;19.08;96.97;101757.09;6400343;27;20833;-79
2022/06/11 00:26:44;;;;;;;1.50;0.98;;;;;;;19.08;96.42;101745.59;6400096;27;20556;-78
2022/06/11 00:29:47;;;;;;;3.03;1.48;;;;;;;19.06;96.83;101747.50;6399401;27;20050;-77
2022/06/11 00:32:49;;;;;;;1.15;1.05;;;;;;;19.06;96.81;101743.00;6397991;27;20054;-77
2022/06/11 00:35:51;;;;;;;1.10;1.00;;;;;;;19.05;97.09;101745.81;6399258;27;20057;-77
2022/06/11 00:38:53;;;;;;;4.10;1.83;;;;;;;19.05;97.05;101737.81;6399432;27;20053;-77
2022/06/11 00:42:00;;;;;;;2.28;1.10;;;;;;;19.03;97.53;101743.25;6398373;27;20103;-77
2022/06/11 00:45:24;;;;;;;3.80;1.58;;;;;;;19.01;97.39;101740.69;6399123;27;20043;-76
2022/06/11 00:48:31;;;;;;;1.45;1.08;;;;;;;18.99;97.99;101739.13;6398805;27;20047;-79
2022/06/11 00:51:32;;;;;;;0.88;0.88;;;;;;;18.95;98.33;101737.63;6399026;27;20126;-79
2022/06/11 00:54:35;;;;;;;1.40;0.90;;;;;;;18.92;98.76;101729.84;6398460;27;20490;-78
2022/06/11 00:57:42;;;;;;;1.30;1.02;;;;;;;18.90;99.46;101740.63;6399142;27;20047;-78
2022/06/11 01:00:47;;;;;;;1.45;1.08;;;;;;;18.91;99.70;101754.78;6398330;27;20057;-77
2022/06/11 01:03:51;;;;;;;0.88;0.85;;;;;;;18.89;98.92;101752.22;6396270;27;20047;-78
2022/06/11 01:06:54;;;;;;;0.95;0.82;;;;;;;18.85;98.01;101749.88;6398562;27;20504;-78
2022/06/11 01:10:08;;;;;;;1.50;1.20;;;;;;;18.87;98.70;101748.84;6398492;27;20048;-77
2022/06/11 01:13:31;;;;;;;2.92;0.90;;;;;;;18.88;98.13;101741.69;6398452;27;20054;-78
2022/06/11 01:16:42;;;;;;;2.03;1.60;;;;;;;18.89;98.17;101733.56;6398381;27;20051;-78
2022/06/11 01:20:09;;;;;;;1.80;1.02;;;;;;;18.86;99.33;101736.47;6398094;27;20512;-79
2022/06/11 01:23:31;;;;;;;1.15;0.88;;;;;;;18.81;99.99;101733.31;6398407;27;20194;-77
2022/06/11 01:27:07;;;;;;;2.90;2.05;;;;;;;18.75;100.00;101744.38;6398266;27;20057;-77
2022/06/11 01:30:12;;;;;;;1.98;0.98;;;;;;;18.72;100.00;101742.81;6397705;27;20504;-76
2022/06/11 01:33:22;;;;;;;1.55;1.10;;;;;;;18.71;100.00;101741.13;6389622;27;20046;-76
2022/06/11 01:36:27;;;;;;;4.70;2.17;;;;;;;18.70;100.00;101741.19;6371615;27;20047;-76
2022/06/11 01:39:35;;;;;;;1.08;0.88;;;;;;;18.71;100.00;101732.25;6372339;27;20044;-76
2022/06/11 01:42:43;;;;;;;2.38;1.23;;;;;;;18.67;100.00;101726.28;6371902;27;20490;-76
2022/06/11 01:45:48;;;;;;;1.25;1.10;;;;;;;18.66;100.00;101727.22;6371943;28;20051;-76
2022/06/11 01:48:51;;;;;;;1.98;1.23;;;;;;;18.63;100.00;101723.94;6371792;28;20046;-76
2022/06/11 01:52:00;;;;;;;1.45;1.00;;;;;;;18.58;100.00;101718.94;6371594;28;20471;-76
2022/06/11 01:55:13;;;;;;;1.90;1.10;;;;;;;18.55;100.00;101720.97;6375512;27;20050;-76
2022/06/11 01:58:30;;;;;;;2.97;1.00;;;;;;;18.52;100.00;101720.22;6377087;27;20418;-76
2022/06/11 02:01:46;;;;;;;1.67;1.13;;;;;;;18.51;100.00;101715.00;6378251;27;20055;-76
2022/06/11 02:04:54;;;;;;;2.47;1.05;;;;;;;18.50;100.00;101723.97;6402632;27;20043;-76
2022/06/11 02:08:03;;;;;;;1.25;1.00;;;;;;;18.47;100.00;101721.50;6377828;27;20051;-76
2022/06/11 02:11:12;;;;;;;1.48;0.98;;;;;;;18.44;100.00;101717.28;6376757;27;20130;-75
2022/06/11 02:14:18;;;;;;;1.63;1.15;;;;;;;18.45;100.00;101716.31;6376641;27;20490;-76
2022/06/11 02:17:24;;;;;;;2.08;1.75;;;;;;;18.43;100.00;101712.03;6376654;27;20146;-76
2022/06/11 02:20:30;;;;;;;1.48;1.20;;;;;;;18.42;100.00;101715.66;6376336;27;20050;-76
2022/06/11 02:23:38;;;;;;;4.95;1.30;;;;;;;18.40;100.00;101715.78;6376759;27;20241;-76
2022/06/11 02:26:44;;;;;;;2.05;1.23;;;;;;;18.41;100.00;101714.81;6376131;27;20047;-76
2022/06/11 02:29:46;;;;;;;0.80;0.80;;;;;;;18.43;100.00;101717.38;6376143;27;20445;-76
2022/06/11 02:32:49;;;;;;;1.60;1.05;;;;;;;18.41;100.00;101711.31;6384876;27;20120;-76
2022/06/11 02:35:58;;;;;;;0.98;0.90;;;;;;;18.36;100.00;101708.97;6402092;27;20046;-76
2022/06/11 02:39:04;;;;;;;2.95;1.20;;;;;;;18.33;100.00;101708.34;6402124;27;20046;-76
2022/06/11 02:42:08;;;;;;;0.82;0.75;;;;;;;18.31;100.00;101712.94;6401278;27;20057;-76
2022/06/11 02:45:12;;;;;;;1.67;0.93;;;;;;;18.30;100.00;101708.53;6401548;27;20056;-76
2022/06/11 02:48:15;;;;;;;2.00;1.20;;;;;;;18.28;100.00;101713.97;6401821;27;20051;-77
2022/06/11 02:51:17;;;;;;;3.00;1.08;;;;;;;18.24;100.00;101716.00;6401419;27;20042;-76
2022/06/11 02:54:19;;;;;;;1.33;0.93;;;;;;;18.24;100.00;101712.50;6375735;27;20051;-75
2022/06/11 02:57:24;;;;;;;1.33;1.08;;;;;;;18.19;100.00;101712.81;6375552;27;20054;-76
2022/06/11 03:00:28;;;;;;;2.20;0.90;;;;;;;18.18;100.00;101711.13;6374758;27;20127;-76
2022/06/11 03:03:31;;;;;;;3.22;1.58;;;;;;;18.27;100.00;101716.75;6374222;27;20502;-75
2022/06/11 03:06:33;;;;;;;3.22;1.30;;;;;;;18.32;100.00;101714.63;6370716;27;20486;-76
2022/06/11 03:09:36;;;;;;;2.00;1.40;;;;;;;18.38;100.00;101703.53;6375595;27;20043;-75
2022/06/11 03:12:38;;;;;;;1.08;0.70;;;;;;;18.35;100.00;101717.94;6375409;27;20047;-76
2022/06/11 03:15:40;;;;;;;2.00;1.13;;;;;;;18.30;100.00;101712.06;6375150;27;20051;-76
2022/06/11 03:18:43;;;;;;;2.05;1.17;;;;;;;18.31;100.00;101721.75;6375412;27;20156;-76
2022/06/11 03:21:46;;;;;;;2.35;1.25;;;;;;;18.31;100.00;101711.13;6375119;27;20046;-76
2022/06/11 03:24:47;;;;;;;1.83;0.88;;;;;;;18.26;100.00;101723.91;6396688;27;20043;-76
2022/06/11 03:27:49;;;;;;;1.70;1.02;;;;;;;18.26;100.00;101729.22;6400984;27;20562;-76
2022/06/11 03:30:52;;;;;;;2.08;1.20;;;;;;;18.29;100.00;101733.47;6380889;27;20046;-76
2022/06/11 03:33:54;;;;;;;1.30;1.13;;;;;;;18.31;100.00;101726.25;6372934;27;20046;-77
2022/06/11 03:36:57;;;;;;;1.33;0.90;;;;;;;18.38;100.00;101738.13;6373186;27;20047;-76
2022/06/11 03:39:58;;;;;;;0.73;0.73;;;;;;;18.40;100.00;101736.22;6372913;27;20483;-76
2022/06/11 03:42:59;;;;;;;7.18;2.35;;;;;;;18.42;100.00;101742.28;6373273;27;20043;-76
2022/06/11 03:46:01;;;;;;;1.90;0.82;;;;;;;18.47;100.00;101746.31;6372799;27;20053;-76
2022/06/11 03:49:04;;;;;;;1.80;0.82;;;;;;;18.47;100.00;101743.66;6385616;27;20054;-76
2022/06/11 03:52:07;;;;;;;1.55;1.30;;;;;;;18.50;100.00;101743.44;6378487;27;20043;-75
2022/06/11 03:55:09;;;;;;;1.50;1.08;;;;;;;18.50;100.00;101755.91;6374342;27;20509;-75
2022/06/11 03:58:12;;;;;;;3.95;1.30;;;;;;;18.55;100.00;101753.78;6374264;27;20050;-76
2022/06/11 04:01:18;;;;;;;3.80;1.60;;;;;;;18.60;100.00;101754.28;6374129;27;20050;-76
2022/06/11 04:04:22;;;;;;;1.80;1.10;;;;;;;18.51;100.00;101757.59;6373827;27;20062;-76
2022/06/11 04:07:23;;;;;;;1.48;0.80;;;;;;;18.49;100.00;101754.22;6374360;27;20489;-76
2022/06/11 04:10:25;;;;;;;2.15;1.02;;;;;;;18.50;100.00;101758.56;6373862;27;20490;-75
2022/06/11 04:13:29;;;;;;;1.25;1.13;;;;;;;18.50;100.00;101763.91;6375251;27;20513;-73
2022/06/11 04:16:33;;;;;;;1.88;1.20;;;;;;;18.50;100.00;101767.41;6372660;27;20410;-75
2022/06/11 04:19:38;;;;;;;4.15;0.93;;;;;;;18.52;100.00;101772.63;6373965;27;20493;-75
2022/06/11 04:22:40;;;;;;;1.20;1.10;;;;;;;18.51;100.00;101774.44;6373861;27;20043;-76
2022/06/11 04:25:42;;;;;;;2.72;1.33;;;;;;;18.51;100.00;101770.91;6373355;27;20051;-76
2022/06/11 04:28:43;;;;;;;1.33;1.20;;;;;;;18.51;100.00;101782.41;6373837;27;20505;-76
2022/06/11 04:31:46;;;;;;;1.80;0.95;;;;;;;18.52;100.00;101786.78;6373184;27;20040;-76
2022/06/11 04:34:50;;;;;;;4.47;1.02;;;;;;;18.51;100.00;101781.56;6373468;27;20047;-76
2022/06/11 04:37:51;;;;;;;2.17;1.00;;;;;;;18.50;100.00;101780.72;6373329;27;20055;-75
2022/06/11 04:40:54;;;;;;;1.35;1.05;;;;;;;18.47;100.00;101786.25;6374435;27;20046;-76
2022/06/11 04:43:55;;;;;;;3.30;1.30;;;;;;;18.50;100.00;101787.84;6372870;27;20051;-76
2022/06/11 04:46:57;;;;;;;2.17;1.10;;;;;;;18.51;100.00;101790.41;6373470;27;20051;-76
2022/06/11 04:50:02;;;;;;;1.27;1.13;;;;;;;18.58;100.00;101796.16;6372627;27;20047;-76
2022/06/11 04:53:05;;;;;;;1.42;1.33;;;;;;;18.66;100.00;101792.94;6373550;27;20054;-76
2022/06/11 04:56:07;;;;;;;3.45;1.50;;;;;;;18.67;100.00;101792.00;6372576;27;20066;-76
2022/06/11 04:59:08;;;;;;;2.42;1.30;;;;;;;18.61;100.00;101793.25;6372801;27;20055;-76
2022/06/11 05:02:10;;;;;;;1.67;1.35;;;;;;;18.64;100.00;101792.22;6372834;27;20048;-76
2022/06/11 05:05:15;;;;;;;6.40;1.60;;;;;;;18.63;100.00;101798.50;6373524;27;20051;-75
2022/06/11 05:08:17;;;;;;;2.10;1.63;;;;;;;18.61;100.00;101793.25;6372817;27;20070;-75
2022/06/11 05:11:18;;;;;;;5.25;1.42;;;;;;;18.62;100.00;101794.13;6372281;27;20043;-76
2022/06/11 05:14:20;;;;;;;3.15;1.42;;;;;;;18.62;100.00;101799.44;6372544;27;20050;-76
2022/06/11 05:17:22;;;;;;;1.35;1.20;;;;;;;18.63;100.00;101793.19;6371880;27;20055;-76
2022/06/11 05:20:25;;;;;;;4.20;2.38;;;;;;;18.69;100.00;101798.94;6363066;27;20051;-75
2022/06/11 05:23:26;;;;;;;2.05;1.65;;;;;;;18.67;100.00;101802.66;6346894;28;20044;-75
2022/06/11 05:26:37;;;;;;;2.95;1.55;;;;;;;18.66;100.00;101811.56;6346707;28;20055;-75
2022/06/11 05:29:48;;;;;;;2.85;1.52;;;;;;;18.73;100.00;101808.41;6358349;27;20045;-76
2022/06/11 05:32:49;;;;;;;6.05;2.28;;;;;;;18.84;100.00;101809.47;6398065;27;20053;-75
2022/06/11 05:35:53;;;;;;;2.15;1.33;;;;;;;18.87;100.00;101809.25;6397551;27;20439;-76
2022/06/11 05:38:54;;;;;;;4.55;1.83;;;;;;;18.85;100.00;101808.50;6398043;27;20051;-75
2022/06/11 05:41:56;;;;;;;4.03;1.73;;;;;;;18.92;100.00;101817.75;6397245;27;20510;-75
2022/06/11 05:44:58;;;;;;;2.28;1.60;;;;;;;19.04;100.00;101824.03;6397663;27;20053;-76
2022/06/11 05:48:00;;;;;;;3.28;1.73;;;;;;;19.05;100.00;101821.25;6397932;27;20046;-76
2022/06/11 05:51:05;;;;;;;2.60;1.85;;;;;;;19.05;100.00;101823.06;6397246;27;20065;-76
2022/06/11 05:54:11;;;;;;;2.85;1.67;;;;;;;19.10;100.00;101827.09;6397567;27;20058;-75
2022/06/11 05:57:16;;;;;;;6.90;1.85;;;;;;;19.22;100.00;101831.56;6394092;27;20493;-75
2022/06/11 06:00:19;;;;;;;6.03;2.15;;;;;;;19.33;100.00;101830.75;6397442;27;20055;-76
2022/06/11 06:03:20;;;;;;;5.80;2.65;;;;;;;19.37;100.00;101842.91;6397969;27;20504;-76
2022/06/11 06:06:23;;;;;;;8.20;2.47;;;;;;;19.30;100.00;101841.63;6398196;27;20053;-77
2022/06/11 06:09:25;;;;;;;4.68;2.65;;;;;;;19.26;100.00;101840.19;6397926;27;20179;-77
2022/06/11 06:12:30;;;;;;;4.50;2.35;;;;;;;19.25;100.00;101843.78;6397552;27;20050;-76
2022/06/11 06:15:32;;;;;;;5.78;3.17;;;;;;;19.26;100.00;101834.84;6397947;27;20050;-76
2022/06/11 06:18:33;;;;;;;5.72;2.10;;;;;;;19.21;100.00;101850.28;6397962;27;20059;-77
2022/06/11 06:21:37;;;;;;;2.63;1.75;;;;;;;19.12;98.48;101840.28;6395480;27;20046;-76
2022/06/11 06:24:38;;;;;;;5.38;1.75;;;;;;;19.06;96.74;101854.06;6398174;27;20172;-77
2022/06/11 06:27:39;;;;;;;2.17;1.30;;;;;;;19.04;96.29;101832.88;6399391;27;20039;-76
2022/06/11 06:30:41;;;;;;;3.78;1.40;;;;;;;19.05;97.04;101845.22;6398093;27;20066;-77
2022/06/11 06:33:43;;;;;;;2.95;1.30;;;;;;;19.05;94.90;101831.91;6398217;27;20054;-76
2022/06/11 06:36:46;;;;;;;4.00;1.05;;;;;;;19.08;95.58;101839.69;6397510;27;20039;-76
2022/06/11 06:39:47;;;;;;;1.85;1.00;;;;;;;19.16;92.20;101844.44;6399212;27;20047;-75
2022/06/11 06:42:49;;;;;;;2.65;1.20;;;;;;;19.24;91.74;101842.94;6404019;27;20049;-76
2022/06/11 06:45:50;;;;;;;2.25;1.20;;;;;;;19.24;92.15;101839.41;6401167;27;20049;-76
2022/06/11 06:48:51;;;;;;;3.03;0.80;;;;;;;19.32;91.97;101844.22;6402813;27;20529;-77
2022/06/11 06:51:54;;;;;;;2.47;0.90;;;;;;;19.42;91.75;101848.75;6402949;27;20054;-77
2022/06/11 06:54:56;;;;;;;2.55;0.90;;;;;;;19.47;90.97;101851.94;6392895;27;20633;-77
2022/06/11 06:57:57;;;;;;;1.75;0.88;;;;;;;19.51;91.19;101853.41;6376352;27;20047;-76
2022/06/11 07:00:58;;;;;;;2.25;0.80;;;;;;;19.55;89.58;101855.84;6376765;27;20039;-76
2022/06/11 07:04:00;;;;;;;6.40;1.13;;;;;;;19.57;89.22;101856.59;6375767;27;20051;-76
2022/06/11 07:07:03;;;;;;;3.08;1.05;;;;;;;19.62;88.49;101851.78;6373767;27;20050;-76
2022/06/11 07:10:06;;;;;;;1.70;1.05;;;;;;;19.64;86.96;101850.72;6373565;27;20047;-77
2022/06/11 07:13:08;;;;;;;1.65;1.15;;;;;;;19.61;83.15;101845.59;6379233;27;20047;-78
2022/06/11 07:16:10;;;;;;;1.48;0.77;;;;;;;19.65;82.61;101848.91;6365332;27;20196;-78
2022/06/11 07:19:17;;;;;;;1.58;0.98;;;;;;;19.60;81.56;101843.03;6352817;28;20050;-78
2022/06/11 07:22:24;;;;;;;1.83;0.80;;;;;;;19.65;81.18;101839.09;6353200;28;20502;-77
2022/06/11 07:25:26;;;;;;;4.85;1.05;;;;;;;19.64;81.00;101847.22;6351485;28;20407;-78
2022/06/11 07:28:38;;;;;;;2.55;0.98;;;;;;;19.66;80.43;101847.94;6350769;28;20051;-78
2022/06/11 07:31:44;;;;;;;1.60;0.90;;;;;;;19.70;81.07;101844.06;6371836;27;20044;-77
2022/06/11 07:34:46;;;;;;;1.25;0.77;;;;;;;19.75;81.90;101849.91;6363768;27;20047;-74
2022/06/11 07:37:49;;;;;;;2.38;0.60;;;;;;;19.86;79.28;101839.31;6390474;27;20047;-77
2022/06/11 07:40:51;;;;;;;1.75;1.05;;;;;;;19.94;78.82;101841.38;6376212;27;20414;-78
2022/06/11 07:43:53;;;;;;;3.75;0.60;;;;;;;19.94;75.92;101841.38;6374777;27;20054;-78
2022/06/11 07:46:54;;;;;;;2.85;0.60;;;;;;;19.95;74.44;101843.94;6373728;27;20042;-78
2022/06/11 07:49:55;;;;;;;0.63;0.63;;;;;;;19.99;73.80;101845.44;6372933;27;20074;-74
2022/06/11 07:52:59;;;;;;;1.27;0.55;;;;;;;20.05;73.75;101846.78;6350431;28;20063;-77
2022/06/11 07:56:01;;;;;;;1.67;0.57;;;;;;;20.15;74.87;101849.59;6357300;27;20536;-79
2022/06/11 07:59:02;;;;;;;3.47;0.77;;;;;;;20.17;75.56;101837.00;6375664;27;20061;-78
2022/06/11 08:02:04;;;;;;;0.98;0.50;;;;;;;20.28;74.33;101837.84;6366359;27;20047;-78
2022/06/11 08:05:06;;;;;;;0.52;0.52;;;;;;;20.31;74.35;101831.44;6376300;27;20517;-78
2022/06/11 08:08:10;;;;;;;0.77;0.77;;;;;;;20.41;73.88;101837.75;6376440;27;20043;-78
2022/06/11 08:11:12;;;;;;;1.88;0.50;;;;;;;20.41;71.64;101831.56;6376769;27;20487;-79
2022/06/11 08:14:13;;;;;;;2.17;0.57;;;;;;;20.43;72.73;101841.16;6376109;27;20054;-78
2022/06/11 08:17:14;;;;;;;0.55;0.40;;;;;;;20.44;72.78;101847.38;6376179;27;20047;-79
2022/06/11 08:20:19;;;;;;;4.90;1.05;;;;;;;20.50;72.91;101839.75;6374432;27;20054;-74
2022/06/11 08:23:24;;;;;;;0.95;0.55;;;;;;;20.57;73.51;101845.44;6374971;27;20480;-78
2022/06/11 08:26:25;;;;;;;2.38;0.63;;;;;;;20.65;72.30;101847.53;6375663;27;20050;-78
2022/06/11 08:29:26;;;;;;;1.50;0.98;;;;;;;20.72;70.54;101857.63;6375638;27;20058;-78
2022/06/11 08:32:28;;;;;;;0.93;0.60;;;;;;;20.77;70.17;101849.25;6374944;27;20051;-78
2022/06/11 08:35:31;;;;;;;0.75;0.60;;;;;;;20.73;70.23;101858.47;6375166;27;20050;-79
2022/06/11 08:38:33;;;;;;;2.10;0.60;;;;;;;20.75;68.96;101846.69;6376268;27;20054;-79
2022/06/11 08:41:36;;;;;;;1.25;0.70;;;;;;;20.82;69.03;101854.22;6374532;27;20440;-78
2022/06/11 08:44:38;;;;;;;2.53;0.70;;;;;;;20.90;67.52;101843.78;6376132;27;20051;-78
2022/06/11 08:47:44;;;;;;;0.80;0.52;;;;;;;20.98;66.95;101860.03;6375346;27;20051;-78
2022/06/11 08:50:55;;;;;;;0.75;0.60;;;;;;;21.12;60.76;101853.59;6374890;27;20046;-75
2022/06/11 08:54:02;;;;;;;1.05;0.60;;;;;;;21.14;59.64;101857.84;6375325;27;20486;-77
2022/06/11 08:57:15;;;;;;;3.40;0.55;;;;;;;21.16;58.46;101852.38;6375735;27;20432;-78
2022/06/11 09:00:20;;;;;;;3.10;0.70;;;;;;;21.17;59.07;101852.28;6374611;27;20051;-76
2022/06/11 09:03:31;;;;;;;0.75;0.50;;;;;;;21.18;58.65;101850.44;6374186;27;20046;-77
2022/06/11 09:06:51;;;;;;;1.73;0.57;;;;;;;21.19;58.28;101850.31;6374543;27;20384;-77
2022/06/11 09:10:07;;;;;;;0.98;0.50;;;;;;;21.25;57.97;101847.13;6374310;27;20460;-76
2022/06/11 09:13:27;;;;;;;0.50;0.50;;;;;;;21.22;58.98;101850.06;6375029;27;20043;-76
2022/06/11 09:16:45;;;;;;;0.73;0.63;;;;;;;21.35;57.75;101847.28;6373868;27;20522;-78
2022/06/11 09:19:59;;;;;;;2.30;0.55;;;;;;;21.33;56.56;101843.88;6374129;27;20051;-77
2022/06/11 09:23:17;;;;;;;2.42;0.77;;;;;;;21.41;57.35;101846.78;6374664;27;20055;-77
2022/06/11 09:26:36;;;;;;;0.70;0.50;;;;;;;21.46;55.82;101841.06;6373956;27;20047;-77
2022/06/11 09:29:50;;;;;;;1.55;0.50;;;;;;;21.56;55.83;101839.31;6373248;27;20051;-76
2022/06/11 09:32:56;;;;;;;1.27;0.32;;;;;;;21.61;55.27;101847.81;6373676;27;20043;-77
2022/06/11 09:36:02;;;;;;;1.67;0.70;;;;;;;21.68;54.05;101840.13;6373695;27;20059;-78
2022/06/11 09:39:13;;;;;;;4.28;0.60;;;;;;;21.71;54.21;101846.09;6374414;27;20050;-76
2022/06/11 09:42:39;;;;;;;1.77;0.50;;;;;;;21.69;54.24;101850.69;6373234;27;20054;-75
2022/06/11 09:45:48;;;;;;;1.67;0.70;;;;;;;21.78;55.35;101849.94;6358150;27;20058;-74
2022/06/11 09:48:54;;;;;;;;;;;;;;;21.87;53.15;101845.66;6373222;27;20136;-78
2022/06/11 09:52:05;;;;;;;1.40;0.60;;;;;;;21.98;50.77;101852.75;6372853;27;19923;-75
2022/06/11 09:55:21;;;;;;;0.68;0.50;;;;;;;22.10;50.48;101853.56;6372629;28;20180;-76
2022/06/11 09:58:31;;;;;;;1.67;0.50;;;;;;;22.13;49.84;101853.34;6372787;28;20047;-77
2022/06/11 10:01:45;;;;;;;1.70;0.50;;;;;;;22.14;50.63;101861.25;6373207;28;20070;-76
2022/06/11 10:04:50;;;;;;;2.63;0.40;;;;;;;22.21;49.41;101858.88;6372829;28;20445;-77
2022/06/11 10:07:56;;;;;;;0.32;0.32;;;;;;;22.19;47.96;101850.16;6373093;27;20133;-75
2022/06/11 10:10:57;;;;;;;0.45;0.45;;;;;;;22.21;49.11;101867.78;6395603;27;20129;-75
2022/06/11 10:17:27;;;;;;;1.15;0.40;;;;;;;22.19;49.51;101874.25;6401883;27;20046;-78
2022/06/11 10:20:33;;;;;;;3.13;0.65;;;;;;;22.13;46.92;101861.38;6402761;27;20493;-76
2022/06/11 10:23:41;;;;;;;1.13;0.60;;;;;;;22.26;47.13;101856.69;6403402;27;20398;-75
2022/06/11 10:26:48;;;;;;;1.63;0.52;;;;;;;22.40;47.08;101853.69;6403052;27;20138;-75
2022/06/11 10:29:55;;;;;;;0.40;0.40;;;;;;;22.59;47.08;101855.63;6402256;27;20047;-75
2022/06/11 10:32:58;;;;;;;1.20;0.50;;;;;;;22.62;46.39;101873.25;6403004;27;20043;-76
2022/06/11 10:36:07;;;;;;;1.75;0.45;;;;;;;22.73;47.32;101865.13;6400687;27;20050;-77
2022/06/11 10:39:14;;;;;;;0.57;0.40;;;;;;;22.81;47.46;101867.16;6402484;27;20133;-76
2022/06/11 10:42:20;;;;;;;0.63;0.30;;;;;;;22.99;44.89;101865.56;6402355;27;20391;-76
2022/06/11 10:45:22;;;;;;;1.30;0.73;;;;;;;22.90;46.21;101872.59;6401792;27;20450;-76
2022/06/11 10:48:27;;;;;;;1.30;0.80;;;;;;;22.87;46.61;101871.97;6402054;27;20054;-75
2022/06/11 10:51:33;;;;;;;1.55;0.52;;;;;;;23.01;46.95;101859.06;6401852;27;20046;-76
2022/06/11 10:54:34;;;;;;;2.08;0.43;;;;;;;22.96;47.39;101865.84;6402400;27;20042;-76
2022/06/11 10:57:37;;;;;;;0.93;0.63;;;;;;;22.83;47.60;101875.91;6401742;27;20533;-76
2022/06/11 11:00:50;;;;;;;0.98;0.70;;;;;;;22.96;47.03;101865.84;6400153;27;20414;-78
2022/06/11 11:03:57;;;;;;;1.58;0.55;;;;;;;23.18;47.05;101867.47;6401428;27;20103;-75
2022/06/11 11:07:11;;;;;;;3.80;0.63;;;;;;;23.39;45.27;101875.41;6401685;27;20065;-75
2022/06/11 11:10:22;;;;;;;1.75;0.70;;;;;;;23.29;45.11;101870.03;6401093;27;20047;-75
2022/06/11 11:13:31;;;;;;;0.65;0.60;;;;;;;23.19;46.04;101872.69;6401866;27;20116;-75
2022/06/11 11:16:39;;;;;;;3.77;0.67;;;;;;;23.08;45.20;101875.47;6401210;27;20049;-76
2022/06/11 11:19:44;;;;;;;4.25;0.68;;;;;;;22.91;46.25;101882.31;6401289;27;20213;-78
2022/06/11 11:22:54;;;;;;;0.40;0.40;;;;;;;22.74;46.90;101867.66;6401130;27;20417;-76
2022/06/11 11:25:59;;;;;;;4.07;1.02;;;;;;;22.74;47.03;101865.00;6398532;27;20050;-76
2022/06/11 11:29:08;;;;;;;1.58;0.60;;;;;;;22.59;47.07;101869.00;6401026;27;20049;-77
2022/06/11 11:32:29;;;;;;;3.45;0.47;;;;;;;22.56;47.95;101882.66;6400671;27;20046;-75
2022/06/11 11:35:39;;;;;;;0.75;0.40;;;;;;;22.64;47.42;101871.28;6349577;28;20047;-76
2022/06/11 11:38:41;;;;;;;1.80;0.75;;;;;;;22.68;49.43;101868.22;6349490;28;20055;-75
2022/06/11 11:41:51;;;;;;;2.75;0.50;;;;;;;22.64;49.58;101879.34;6349197;28;20048;-75
2022/06/11 11:44:57;;;;;;;1.77;0.45;;;;;;;22.65;49.13;101881.88;6364449;27;20047;-76
2022/06/11 11:48:06;;;;;;;1.25;0.40;;;;;;;22.74;49.98;101875.72;6370519;27;20084;-75
2022/06/11 11:51:14;;;;;;;1.02;0.50;;;;;;;23.02;50.18;101879.53;6373854;27;20062;-74
2022/06/11 11:54:19;;;;;;;0.47;0.38;;;;;;;23.29;47.25;101878.91;6374568;27;20531;-76
2022/06/11 11:57:22;;;;;;;3.65;0.77;;;;;;;23.25;48.18;101882.84;6373847;27;20054;-75
2022/06/11 12:00:29;;;;;;;1.05;0.60;;;;;;;23.21;48.05;101876.09;6385424;27;20054;-75
2022/06/11 12:03:38;;;;;;;1.98;0.50;;;;;;;23.24;48.70;101883.00;6374406;27;20123;-75
2022/06/11 12:06:44;;;;;;;1.00;0.55;;;;;;;23.15;49.50;101873.09;6374236;27;20051;-75
2022/06/11 12:09:52;;;;;;;2.40;0.70;;;;;;;23.09;49.86;101879.84;6373933;27;20039;-75
2022/06/11 12:12:55;;;;;;;1.20;0.60;;;;;;;23.34;49.65;101873.13;6374295;27;20039;-76
2022/06/11 12:15:59;;;;;;;3.60;0.57;;;;;;;23.68;48.29;101881.72;6373985;27;20540;-74
2022/06/11 12:19:07;;;;;;;1.42;0.60;;;;;;;23.33;48.69;101884.03;6373957;27;20053;-75
2022/06/11 12:22:16;;;;;;;2.85;0.88;;;;;;;22.98;49.69;101883.50;6373883;27;20050;-75
2022/06/11 12:25:25;;;;;;;1.75;0.60;;;;;;;23.36;50.04;101873.03;6392216;27;20042;-75
2022/06/11 12:28:32;;;;;;;2.60;0.70;;;;;;;23.57;48.73;101865.69;6399592;27;20062;-76
2022/06/11 12:31:35;;;;;;;2.88;1.05;;;;;;;23.43;49.28;101858.91;6398854;27;20047;-75
2022/06/11 12:34:37;;;;;;;0.70;0.70;;;;;;;24.17;46.11;101868.31;6399044;27;20070;-76
2022/06/11 12:37:45;;;;;;;0.70;0.60;;;;;;;24.62;45.99;101863.16;6398617;27;20046;-75
2022/06/11 12:40:50;;;;;;;1.45;0.52;;;;;;;24.64;45.30;101866.53;6398714;27;20050;-75
2022/06/11 12:43:58;;;;;;;0.40;0.40;;;;;;;25.34;45.35;101868.78;6398647;27;20532;-75
2022/06/11 12:47:10;;;;;;;2.15;1.15;;;;;;;25.74;42.85;101868.38;6399127;27;20058;-76
2022/06/11 12:50:25;;;;;;;4.05;1.15;;;;;;;25.89;41.87;101877.66;6378397;27;20517;-76
2022/06/11 12:53:47;;;;;;;2.42;0.88;;;;;;;25.34;43.37;101874.16;6398854;27;20406;-73
2022/06/11 12:57:07;;;;;;;1.95;0.57;;;;;;;25.75;43.50;101878.13;6399033;27;20183;-72
2022/06/11 13:00:23;;;;;;;1.52;0.52;;;;;;;25.56;43.06;101876.44;6398067;27;20077;-73
2022/06/11 13:03:57;;;;;;;1.10;0.60;;;;;;;25.03;43.94;101886.06;6398930;27;20051;-76
2022/06/11 13:07:08;;;;;;;1.20;0.50;;;;;;;24.64;45.11;101881.81;6398726;27;20046;-75
2022/06/11 13:10:23;;;;;;;0.90;0.63;;;;;;;24.86;45.40;101876.09;6398108;27;20042;-75
2022/06/11 13:13:52;;;;;;;2.50;0.85;;;;;;;25.39;43.50;101875.44;6398613;27;20047;-76
2022/06/11 13:17:04;;;;;;;0.60;0.60;;;;;;;24.68;46.66;101878.69;6388816;27;20050;-76
2022/06/11 13:20:13;;;;;;;2.85;0.65;;;;;;;24.21;46.83;101869.69;6372455;27;20054;-77
2022/06/11 13:23:22;;;;;;;9.73;4.93;;;;;;;24.30;46.70;101877.75;6377329;27;20054;-78
2022/06/11 13:26:28;;;;;;;;;;;;;;;23.92;47.24;101885.84;6376780;27;20050;-77
2022/06/11 13:29:46;;;;;;;3.63;0.80;;;;;;;24.11;48.38;101884.97;6372727;27;20294;-78
2022/06/11 13:32:56;;;;;;;2.55;0.95;;;;;;;24.48;47.75;101880.59;6372614;27;20050;-78
2022/06/11 13:36:06;;;;;;;0.93;0.60;;;;;;;24.46;46.23;101874.50;6373756;27;20070;-79
2022/06/11 13:39:26;;;;;;;6.78;0.88;;;;;;;25.04;45.76;101874.31;6373081;27;20071;-78
2022/06/11 13:42:39;;;;;;;1.40;0.60;;;;;;;25.73;45.27;101878.28;6372468;27;20047;-78
2022/06/11 13:45:53;;;;;;;3.65;0.60;;;;;;;25.67;43.86;101873.53;6375047;27;20386;-78
2022/06/11 13:49:08;;;;;;;1.20;0.60;;;;;;;25.80;43.85;101870.50;6398619;27;20043;-78
2022/06/11 13:55:10;;;;;;;3.13;0.80;;;;;;;25.37;43.84;101868.50;6397977;27;20046;-77
2022/06/11 13:55:42;;;;;;;1.65;0.50;;;;;;;24.66;45.29;101859.16;6397443;27;20050;-78
2022/06/11 13:59:08;;;;;;;1.23;0.68;;;;;;;24.54;46.07;101857.66;6398323;27;20046;-77
2022/06/11 14:02:33;;;;;;;3.50;0.73;;;;;;;24.29;46.92;101848.34;6398125;27;20053;-77
2022/06/11 14:05:37;;;;;;;0.50;0.50;;;;;;;24.18;46.49;101848.50;6397607;27;20058;-76
2022/06/11 14:08:42;;;;;;;1.55;0.70;;;;;;;24.39;47.17;101848.34;6397624;27;20394;-77
2022/06/11 14:11:46;;;;;;;2.58;0.98;;;;;;;25.08;46.30;101844.47;6397462;27;20054;-77
2022/06/11 14:15:17;;;;;;;0.93;0.73;;;;;;;25.14;46.04;101850.06;6397251;27;20498;-77
2022/06/11 14:18:38;;;;;;;3.92;0.65;;;;;;;24.47;46.38;101846.63;6378476;27;20047;-77
2022/06/11 14:21:45;;;;;;;0.57;0.55;;;;;;;24.08;46.54;101856.59;6371627;28;20090;-77
2022/06/11 14:25:00;;;;;;;1.58;0.88;;;;;;;24.35;46.92;101857.69;6371791;28;20050;-78
2022/06/11 14:28:52;;;;;;;0.85;0.50;;;;;;;24.37;47.37;101850.34;6371911;28;20059;-77